• Join FlightAware (Why Join?)
  • Login
  • US Flag 
09:53PM EDT


 

Airport Tracker/Info


-or-


 

Live Flight TrackerFlight Track Log ✈ SWA2852 ✈ 22-Apr-2013 ✈ KROC - KMDW

Flight Track Log - Related Links

Times and Time Zones

All times are in EDT time to prevent confusion due to time zone crossing. See the SWA2852 flight status page for this flight to view local times or setup timezone preferences in your user account.

Time Position Orientation Groundspeed Altitude Reporting Facility
EDT Latitude Longitude Course Direction KTS MPH feet Rate Location/Type
05:09PM 43.1661 -77.6086 32° Northeast 266 306 4,600  Level Cleveland Center
05:10PM 43.1819 -77.6592 293° West 264 304 6,900 3,540 Climbing Cleveland Center
05:11PM 43.1844 -77.7644 272° West 276 318 10,500 2,640 Climbing Cleveland Center
05:12PM 43.1897 -77.8922 273° West 309 356 12,200 2,460 Climbing Cleveland Center
05:13PM 43.1950 -78.0375 273° West 353 406 15,500 2,580 Climbing Cleveland Center
05:14PM 43.1754 -78.4812 203° Southwest  Level FlightAware Approximate
05:15PM 43.1069 -78.3111 246° West 389 448 20,000  Level Cleveland Center
05:16PM 43.0383 -78.4358 233° Southwest 404 465 20,100 1,200 Climbing Cleveland Center
05:17PM 42.9719 -78.5686 236° Southwest 418 481 22,500 2,400 Climbing Cleveland Center
05:18PM 42.9203 -78.7178 245° Southwest 432 497 24,900 2,160 Climbing Cleveland Center
05:19PM 42.9083 -78.8825 264° West 428 493 26,900 1,200 Climbing Cleveland Center
05:20PM 42.8939 -79.0500 263° West 440 506 27,300 1,560 Climbing Cleveland Center
05:21PM 42.8606 -79.2067 254° West 445 512 30,100 2,700 Climbing Cleveland Center
05:22PM 42.8289 -79.3603 254° West 434 499 32,700 1,920 Climbing Cleveland Center
05:23PM 42.7908 -79.5108 251° West 429 494 34,000 600 Climbing Cleveland Center
05:24PM 42.7567 -79.6614 253° West 418 481 34,000  Level Cleveland Center
05:25PM 42.7014 -79.7950 241° Southwest 418 481 34,000  Level Cleveland Center
05:26PM 42.6333 -79.9200 234° Southwest 408 470 34,000 360 Level Cleveland Center
05:27PM 42.5592 -80.0617 235° Southwest 420 483 34,800 600 Climbing Cleveland Center
05:28PM 42.4908 -80.1889 234° Southwest 420 483 35,200 600 Climbing Cleveland Center
05:29PM 42.4558 -80.3186 250° West 414 476 36,000 360 Climbing Cleveland Center
05:30PM 42.4267 -80.4650 255° West 413 475 36,000  Level Cleveland Center
05:31PM 42.3956 -80.6086 254° West 413 475 36,000  Level Cleveland Center
05:32PM 42.3664 -80.7603 255° West 413 475 36,000  Level Cleveland Center
05:33PM 42.3347 -80.9061 254° West 413 475 36,000  Level Cleveland Center
05:34PM 42.3028 -81.0547 254° West 413 475 36,000  Level Cleveland Center
05:35PM 42.2708 -81.2006 254° West 413 475 36,000  Level Cleveland Center
05:36PM 42.2408 -81.3489 255° West 418 481 36,000  Level Cleveland Center
05:37PM 42.2042 -81.5108 253° West 412 474 36,000  Level Cleveland Center
05:38PM 42.1739 -81.6561 254° West 412 474 36,000  Level Cleveland Center
05:39PM 42.1433 -81.7986 254° West 412 474 36,000  Level Cleveland Center
05:40PM 42.1103 -81.9489 254° West 412 474 36,000  Level Cleveland Center
05:41PM 42.0792 -82.0911 254° West 412 474 36,000  Level Cleveland Center
05:42PM 42.0439 -82.2383 252° West 412 474 36,000  Level Cleveland Center
05:43PM 42.0144 -82.3858 255° West 412 474 36,000  Level Cleveland Center
05:44PM 41.9789 -82.5328 252° West 417 480 36,000  Level Cleveland Center
05:45PM 41.9450 -82.6769 253° West 417 480 36,000  Level Cleveland Center
05:46PM 41.9131 -82.8267 254° West 417 480 36,000  Level Cleveland Center
05:47PM 41.8767 -82.9758 252° West 417 480 36,000  Level Cleveland Center
05:48PM 41.8442 -83.1253 254° West 417 480 36,000  Level Cleveland Center
05:49PM 41.8075 -83.2769 252° West 422 486 36,000  Level Cleveland Center
05:50PM 41.7725 -83.4231 252° West 422 486 36,000  Level Cleveland Center
05:51PM 41.7375 -83.5775 253° West 422 486 36,000  Level Cleveland Center
05:52PM 41.7019 -83.7289 253° West 422 486 36,000  Level Cleveland Center
05:53PM 41.6667 -83.8744 252° West 427 491 36,000  Level Cleveland Center
05:55PM 41.5989 -84.1619 253° West 419 482 36,000  Level Chicago Center
05:56PM 41.5647 -84.3089 253° West 417 480 36,000 -780 Level Chicago Center
05:57PM 41.5275 -84.4556 251° West 417 480 34,400 -2,580 Descending Chicago Center
05:58PM 41.4894 -84.6119 252° West 430 495 30,700 -2,160 Descending Chicago Center
05:59PM 41.4856 -84.7686 268° West 438 504 30,000 -360 Descending Chicago Center
06:01PM 41.4978 -85.1286 273° West 440 506 29,700 -1,080 Descending Chicago Center
06:02PM 41.5033 -85.2928 273° West 439 505 26,800 -2,700 Descending Chicago Center
06:03PM 41.5075 -85.4500 272° West 421 484 24,200 -1,740 Descending Chicago Center
06:04PM 41.5114 -85.6022 272° West 405 466 23,300 -960 Descending Chicago Center
06:05PM 41.5136 -85.7581 271° West 413 475 22,300 -1,620 Descending Chicago Center
06:06PM 41.5167 -85.9067 272° West 407 468 20,000 -2,220 Descending Chicago Center
06:07PM 41.5181 -86.0475 271° West 384 442 17,700 -2,760 Descending Chicago Center
06:08PM 41.5197 -86.2172 271° West 381 438 14,300 -2,940 Descending Chicago Center
06:09PM 41.5222 -86.3517 271° West 368 423 11,700 -1,620 Descending Chicago Center
06:10PM 41.5239 -86.4808 271° West 351 404 11,000 -840 Descending Chicago Center
06:11PM 41.5203 -86.6031 268° West 335 386 10,000 -660 Descending Chicago Center
06:12PM 41.4978 -86.7136 255° West 275 316 9,700 -660 Descending Chicago Center
06:14PM 41.4603 -86.7944 238° Southwest 258 297 8,700 -900 Descending Chicago Center
06:15PM 41.4772 -86.8950 283° West 274 315 7,900 -1,020 Descending Chicago Center
06:16PM 41.4908 -86.9931 281° West 272 313 6,700 -1,020 Descending Chicago Center
06:17PM 41.5056 -87.0906 281° West 270 311 5,900 -420 Descending Chicago Center
06:18PM 41.5189 -87.2097 279° West 272 313 5,900  Level Chicago Center
06:19PM 41.5167 -87.3000 268° West 268 308 6,000 -480 Climbing Chicago TRACON
06:20PM 41.5167 -87.4000 270° West 277 319 5,000 -900 Descending Chicago TRACON
06:21PM 41.5167 -87.5000 270° West 275 316 4,200 -480 Descending Chicago TRACON
06:22PM 41.5167 -87.6000 270° West 270 311 4,100 -180 Descending Chicago TRACON
06:23PM 41.5500 -87.6833 298° West 274 315 3,900 -540 Descending Chicago TRACON
06:24PM 41.5833 -87.7833 294° West 275 316 3,100 -720 Descending Chicago TRACON
06:24PM 41.5903 -87.7997 300° West 274 315 3,000 -540 Descending Chicago Center
06:25PM 41.6211 -87.8747 299° West 252 290 2,400 -300 Descending Chicago Center
06:26PM 41.6661 -87.8942 342° North 212 244 2,400  Level Chicago Center
06:27PM 41.7000 -87.8667 31° Northeast 181 208 2,500 -300 Climbing Chicago TRACON
06:28PM 41.7333 -87.8167 48° Northeast 163 188 1,900 -720 Descending Chicago TRACON
06:29PM 41.7667 -87.7833 37° Northeast 140 161 1,100 -840 Descending Chicago TRACON
06:31PM 41.7833 -87.7500 28° Northeast  Level FlightAware Approximate